Time;durP1;ratioP1;P1;durP2;ratioP2;P2;SDS_P1;SDS_P2;PMS_P1;PMS_P2;Temp;Humidity;BMP_temperature;BMP_pressure;BME280_temperature;BME280_humidity;BME280_pressure;Samples;Min_cycle;Max_cycle;Signal;HPM_P1;HPM_P2
2021/12/23 00:01:43;;;;;;;62.42;29.42;;;;;;;;;;4986340;28;20071;-70
2021/12/23 00:04:10;;;;;;;55.70;30.50;;;;;;;;;;5005737;28;20422;-68
2021/12/23 00:06:38;;;;;;;49.22;28.63;;;;;;;;;;4989487;28;20053;-72
2021/12/23 00:09:05;;;;;;;52.50;28.40;;;;;;;;;;5009938;28;20041;-72
2021/12/23 00:11:32;;;;;;;59.05;29.45;;;;;;;;;;4987117;28;20426;-75
2021/12/23 00:14:02;;;;;;;52.63;28.48;;;;;;;;;;5010099;28;20057;-71
2021/12/23 00:16:47;;;;;;;52.80;27.63;;;;;;;;;;4989385;28;20427;-71
2021/12/23 00:24:40;;;;;;;54.55;29.50;;;;;;;;;;5008355;28;20128;-72
2021/12/23 00:27:07;;;;;;;53.63;28.23;;;;;;;;;;5008236;28;20514;-74
2021/12/23 00:29:34;;;;;;;56.38;29.88;;;;;;;;;;5009142;28;20046;-73
2021/12/23 00:32:05;;;;;;;48.60;27.67;;;;;;;;;;5003369;28;20053;-73
2021/12/23 00:34:32;;;;;;;52.30;28.23;;;;;;;;;;5008398;28;20045;-72
2021/12/23 00:37:00;;;;;;;57.17;28.52;;;;;;;;;;4990521;28;20410;-72
2021/12/23 00:39:27;;;;;;;54.67;28.13;;;;;;;;;;4992202;28;20057;-74
2021/12/23 00:41:55;;;;;;;47.15;27.63;;;;;;;;;;4988253;28;20053;-68
2021/12/23 00:44:21;;;;;;;53.15;28.27;;;;;;;;;;4977722;28;20135;-73
2021/12/23 00:46:47;;;;;;;60.15;30.08;;;;;;;;;;4987756;28;20058;-69
2021/12/23 00:49:14;;;;;;;53.05;29.55;;;;;;;;;;5007420;28;20049;-74
2021/12/23 00:51:40;;;;;;;54.65;28.58;;;;;;;;;;4987286;28;20100;-69
2021/12/23 00:54:08;;;;;;;50.58;28.60;;;;;;;;;;5008205;28;20073;-74
2021/12/23 00:56:35;;;;;;;50.42;28.75;;;;;;;;;;5006652;28;20057;-73
2021/12/23 00:59:06;;;;;;;53.90;28.58;;;;;;;;;;5010103;28;20076;-69
2021/12/23 01:01:33;;;;;;;54.55;28.88;;;;;;;;;;5003291;28;20077;-73
2021/12/23 01:03:59;;;;;;;50.40;28.20;;;;;;;;;;4989242;28;20148;-70
2021/12/23 01:06:26;;;;;;;48.83;27.75;;;;;;;;;;4990799;28;20242;-71
2021/12/23 01:08:52;;;;;;;51.85;28.63;;;;;;;;;;5004168;28;20877;-71
2021/12/23 01:11:18;;;;;;;52.75;28.35;;;;;;;;;;4987024;28;20313;-72
2021/12/23 01:14:00;;;;;;;49.25;28.05;;;;;;;;;;4979033;28;21004;-74
2021/12/23 01:16:48;;;;;;;55.78;27.85;;;;;;;;;;5004957;28;20061;-68
2021/12/23 01:19:15;;;;;;;46.80;26.30;;;;;;;;;;5005439;28;20376;-67
2021/12/23 01:21:42;;;;;;;49.92;27.48;;;;;;;;;;4984737;28;20648;-68
2021/12/23 01:24:10;;;;;;;54.22;28.55;;;;;;;;;;5004957;28;20061;-72
2021/12/23 01:26:38;;;;;;;52.22;28.08;;;;;;;;;;5002477;28;20458;-69
2021/12/23 01:29:04;;;;;;;49.40;26.73;;;;;;;;;;5007469;28;21587;-69
2021/12/23 01:31:32;;;;;;;50.38;27.98;;;;;;;;;;5004520;28;20171;-72
2021/12/23 01:33:58;;;;;;;50.97;26.42;;;;;;;;;;5004640;28;20061;-73
2021/12/23 01:36:25;;;;;;;56.53;27.48;;;;;;;;;;5006616;28;20124;-71
2021/12/23 01:38:51;;;;;;;51.03;29.98;;;;;;;;;;5007321;28;20049;-68
2021/12/23 01:41:18;;;;;;;51.95;28.70;;;;;;;;;;5003207;28;20120;-70
2021/12/23 01:43:45;;;;;;;60.85;30.23;;;;;;;;;;4991402;28;20107;-73
2021/12/23 01:46:11;;;;;;;64.57;31.58;;;;;;;;;;4997142;28;20049;-73
2021/12/23 01:48:37;;;;;;;67.88;31.48;;;;;;;;;;5003525;28;20072;-70
2021/12/23 01:51:04;;;;;;;58.47;30.95;;;;;;;;;;5007335;28;20418;-72
2021/12/23 01:53:30;;;;;;;69.38;33.15;;;;;;;;;;4972706;28;20054;-73
2021/12/23 01:55:58;;;;;;;61.85;31.60;;;;;;;;;;5007296;28;20234;-71
2021/12/23 01:58:24;;;;;;;64.82;31.92;;;;;;;;;;4989175;28;20136;-68
2021/12/23 02:00:52;;;;;;;62.75;32.28;;;;;;;;;;5006810;28;20077;-67
2021/12/23 02:03:19;;;;;;;60.15;31.92;;;;;;;;;;4999210;28;20053;-70
2021/12/23 02:05:46;;;;;;;64.03;32.08;;;;;;;;;;5005336;28;20071;-69
2021/12/23 02:08:13;;;;;;;67.63;34.72;;;;;;;;;;5006360;28;20049;-70
2021/12/23 02:10:41;;;;;;;67.95;33.60;;;;;;;;;;4991134;28;20080;-66
2021/12/23 02:13:08;;;;;;;86.53;36.97;;;;;;;;;;5006566;28;20053;-72
2021/12/23 02:15:34;;;;;;;74.63;35.05;;;;;;;;;;5012389;28;20045;-73
2021/12/23 02:18:00;;;;;;;74.18;35.65;;;;;;;;;;5009144;28;20056;-71
2021/12/23 02:20:32;;;;;;;81.85;37.50;;;;;;;;;;4993722;28;20061;-73
2021/12/23 02:22:59;;;;;;;78.65;36.28;;;;;;;;;;4989546;28;20494;-71
2021/12/23 02:25:26;;;;;;;80.68;36.75;;;;;;;;;;4994776;28;20137;-73
2021/12/23 02:27:53;;;;;;;78.88;36.83;;;;;;;;;;5009197;28;20064;-67
2021/12/23 02:30:25;;;;;;;75.03;36.95;;;;;;;;;;5010755;28;20045;-72
2021/12/23 02:32:53;;;;;;;81.28;36.97;;;;;;;;;;4987571;28;20076;-70
2021/12/23 02:35:22;;;;;;;81.63;36.22;;;;;;;;;;4994013;28;20092;-68
2021/12/23 02:37:50;;;;;;;78.70;36.08;;;;;;;;;;5009036;28;20060;-72
2021/12/23 02:40:33;;;;;;;81.28;37.35;;;;;;;;;;5011615;28;20070;-67
2021/12/23 02:43:18;;;;;;;82.60;36.63;;;;;;;;;;4975210;28;20111;-69
2021/12/23 02:45:45;;;;;;;;;;;;;;;;;;5011702;28;20242;-70
2021/12/23 02:48:15;;;;;;;82.57;37.33;;;;;;;;;;5007197;28;19968;-68
2021/12/23 02:50:45;;;;;;;83.57;37.00;;;;;;;;;;5007471;28;20053;-68
2021/12/23 02:53:12;;;;;;;79.38;37.80;;;;;;;;;;4986475;28;20073;-72
2021/12/23 02:55:38;;;;;;;82.53;37.10;;;;;;;;;;4990524;28;20065;-72
2021/12/23 02:58:05;;;;;;;76.40;37.10;;;;;;;;;;5007183;28;20050;-72
2021/12/23 03:00:33;;;;;;;81.55;38.40;;;;;;;;;;5008688;28;20065;-71
2021/12/23 03:02:59;;;;;;;76.47;37.55;;;;;;;;;;4983841;28;21069;-71
2021/12/23 03:05:26;;;;;;;80.90;37.17;;;;;;;;;;5009465;28;20058;-70
2021/12/23 03:07:52;;;;;;;86.70;39.47;;;;;;;;;;5009473;28;20049;-67
2021/12/23 03:10:22;;;;;;;79.43;38.50;;;;;;;;;;5007990;28;20140;-75
2021/12/23 03:12:49;;;;;;;86.25;36.42;;;;;;;;;;5003975;28;20136;-67
2021/12/23 03:15:16;;;;;;;76.47;37.10;;;;;;;;;;4991610;28;20056;-68
2021/12/23 03:17:42;;;;;;;75.35;35.15;;;;;;;;;;5005470;28;20057;-66
2021/12/23 03:20:09;;;;;;;74.47;34.63;;;;;;;;;;4990795;28;20414;-70
2021/12/23 03:22:35;;;;;;;76.60;35.70;;;;;;;;;;4987294;28;20064;-68
2021/12/23 03:25:01;;;;;;;80.80;35.90;;;;;;;;;;5010299;28;20053;-73
2021/12/23 03:27:27;;;;;;;73.05;35.35;;;;;;;;;;5007159;28;20100;-69
2021/12/23 03:29:56;;;;;;;75.00;35.45;;;;;;;;;;5009965;28;20128;-69
2021/12/23 03:32:23;;;;;;;85.32;35.70;;;;;;;;;;4984073;28;21165;-69
2021/12/23 03:34:50;;;;;;;83.78;34.70;;;;;;;;;;5009048;28;20057;-71
2021/12/23 03:37:16;;;;;;;82.68;35.67;;;;;;;;;;5009668;28;20465;-67
2021/12/23 03:39:42;;;;;;;80.93;35.83;;;;;;;;;;4990663;28;20095;-70
2021/12/23 03:42:09;;;;;;;82.00;36.40;;;;;;;;;;5005602;28;20553;-69
2021/12/23 03:44:35;;;;;;;76.68;35.25;;;;;;;;;;5009698;28;20056;-73
2021/12/23 03:47:02;;;;;;;75.15;35.70;;;;;;;;;;5004877;28;20128;-68
2021/12/23 03:49:28;;;;;;;72.25;34.58;;;;;;;;;;4991333;28;20545;-72
2021/12/23 03:51:54;;;;;;;73.00;34.38;;;;;;;;;;4941471;28;1831836;-70
2021/12/23 03:54:21;;;;;;;76.78;34.42;;;;;;;;;;4991958;28;20062;-66
2021/12/23 03:56:47;;;;;;;76.95;35.83;;;;;;;;;;5004965;28;20111;-72
2021/12/23 03:59:14;;;;;;;86.55;34.65;;;;;;;;;;5009044;28;20996;-67
2021/12/23 04:01:41;;;;;;;76.28;34.08;;;;;;;;;;5003912;28;20058;-67
2021/12/23 04:04:08;;;;;;;70.28;34.70;;;;;;;;;;4972298;28;20063;-70
2021/12/23 04:06:34;;;;;;;68.70;34.38;;;;;;;;;;4990075;28;20261;-74
2021/12/23 04:09:01;;;;;;;73.38;33.47;;;;;;;;;;4994627;28;20683;-71
2021/12/23 04:11:28;;;;;;;73.53;34.30;;;;;;;;;;4991517;28;20784;-71
2021/12/23 04:13:55;;;;;;;69.55;33.03;;;;;;;;;;5013422;28;20057;-68
2021/12/23 04:16:26;;;;;;;69.13;32.60;;;;;;;;;;5009408;28;20308;-72
2021/12/23 04:18:54;;;;;;;67.80;32.33;;;;;;;;;;4987914;28;20183;-67
2021/12/23 04:21:20;;;;;;;69.32;32.10;;;;;;;;;;5005120;28;20476;-72
2021/12/23 04:23:46;;;;;;;63.13;31.55;;;;;;;;;;4975186;28;20064;-73
2021/12/23 04:26:12;;;;;;;66.78;32.33;;;;;;;;;;5007743;28;20076;-67
2021/12/23 04:28:47;;;;;;;72.10;32.28;;;;;;;;;;5004843;28;20146;-69
2021/12/23 04:31:19;;;;;;;75.75;32.47;;;;;;;;;;4987973;28;20469;-74
2021/12/23 04:33:49;;;;;;;60.80;30.90;;;;;;;;;;5006123;28;20054;-65
2021/12/23 04:36:16;;;;;;;64.53;31.92;;;;;;;;;;5008941;28;20049;-67
2021/12/23 04:38:45;;;;;;;68.05;31.75;;;;;;;;;;5008346;28;20069;-69
2021/12/23 04:41:13;;;;;;;68.63;31.60;;;;;;;;;;5005783;28;20045;-73
2021/12/23 04:43:40;;;;;;;64.35;30.33;;;;;;;;;;5006509;28;20053;-72
2021/12/23 04:46:06;;;;;;;69.13;30.83;;;;;;;;;;4974916;28;20046;-71
2021/12/23 04:48:33;;;;;;;60.60;30.67;;;;;;;;;;4988257;28;20540;-75
2021/12/23 04:51:00;;;;;;;61.00;28.23;;;;;;;;;;4988836;28;20065;-68
2021/12/23 04:53:27;;;;;;;62.35;28.05;;;;;;;;;;4986642;28;20068;-71
2021/12/23 04:55:53;;;;;;;55.25;29.08;;;;;;;;;;4989617;28;20081;-69
2021/12/23 04:58:20;;;;;;;63.55;28.70;;;;;;;;;;5005759;28;20057;-67
2021/12/23 05:00:48;;;;;;;56.38;27.33;;;;;;;;;;5009160;28;20057;-65
2021/12/23 05:03:16;;;;;;;58.42;28.05;;;;;;;;;;5003116;28;20052;-68
2021/12/23 05:05:44;;;;;;;56.95;26.55;;;;;;;;;;4990217;28;20411;-66
2021/12/23 05:08:11;;;;;;;60.58;28.45;;;;;;;;;;4973585;28;20041;-67
2021/12/23 05:10:37;;;;;;;58.13;26.95;;;;;;;;;;4988659;28;20144;-75
2021/12/23 05:13:04;;;;;;;51.95;26.50;;;;;;;;;;4985033;28;20057;-71
2021/12/23 05:15:32;;;;;;;52.65;26.80;;;;;;;;;;5005996;28;20156;-70
2021/12/23 05:17:58;;;;;;;59.55;28.48;;;;;;;;;;4986853;28;20056;-70
2021/12/23 05:20:25;;;;;;;55.70;27.40;;;;;;;;;;4971566;28;20106;-69
2021/12/23 05:22:51;;;;;;;54.95;28.30;;;;;;;;;;4984530;28;20092;-73
2021/12/23 05:25:18;;;;;;;61.35;28.88;;;;;;;;;;4998495;28;20672;-66
2021/12/23 05:27:45;;;;;;;60.17;29.17;;;;;;;;;;4986159;28;20045;-68
2021/12/23 05:30:15;;;;;;;64.60;29.55;;;;;;;;;;5004545;28;20517;-69
2021/12/23 05:32:42;;;;;;;58.00;27.88;;;;;;;;;;4998483;28;20049;-70
2021/12/23 05:35:11;;;;;;;54.17;28.75;;;;;;;;;;5004357;28;20057;-69
2021/12/23 05:37:39;;;;;;;59.30;29.17;;;;;;;;;;5003614;28;20525;-68
2021/12/23 05:40:07;;;;;;;56.10;28.23;;;;;;;;;;4987832;28;20049;-69
2021/12/23 05:42:33;;;;;;;57.03;27.77;;;;;;;;;;4972670;28;20049;-72
2021/12/23 05:44:59;;;;;;;63.58;28.67;;;;;;;;;;5002099;28;20053;-68
2021/12/23 05:47:26;;;;;;;53.53;29.02;;;;;;;;;;4995617;28;20049;-73
2021/12/23 05:49:52;;;;;;;51.55;27.42;;;;;;;;;;4981208;28;20712;-69
2021/12/23 05:52:19;;;;;;;51.97;27.50;;;;;;;;;;4995460;28;20175;-67
2021/12/23 05:54:45;;;;;;;54.22;27.98;;;;;;;;;;4980871;28;20124;-71
2021/12/23 05:57:12;;;;;;;46.53;25.35;;;;;;;;;;5002789;28;20073;-68
2021/12/23 05:59:38;;;;;;;48.08;26.67;;;;;;;;;;4984638;28;20155;-72
2021/12/23 06:02:05;;;;;;;45.10;24.90;;;;;;;;;;4979323;28;20168;-71
2021/12/23 06:04:33;;;;;;;49.47;26.17;;;;;;;;;;5002027;28;20110;-74
2021/12/23 06:07:00;;;;;;;52.33;24.77;;;;;;;;;;4967607;28;20057;-72
2021/12/23 06:09:26;;;;;;;50.05;25.55;;;;;;;;;;5002175;28;20588;-72
2021/12/23 06:11:53;;;;;;;45.08;25.85;;;;;;;;;;4994566;28;20052;-68
2021/12/23 06:14:21;;;;;;;49.50;24.88;;;;;;;;;;4982861;28;20052;-67
2021/12/23 06:16:47;;;;;;;52.80;26.38;;;;;;;;;;4998312;28;20498;-67
2021/12/23 06:19:13;;;;;;;47.45;24.27;;;;;;;;;;4982845;28;20809;-71
2021/12/23 06:21:40;;;;;;;41.17;24.33;;;;;;;;;;4996570;28;20050;-70
2021/12/23 06:24:06;;;;;;;47.13;25.05;;;;;;;;;;4982965;28;20053;-71
2021/12/23 06:26:33;;;;;;;45.20;24.58;;;;;;;;;;4982103;28;20087;-70
2021/12/23 06:28:59;;;;;;;41.35;24.08;;;;;;;;;;4985071;28;20061;-71
2021/12/23 06:31:26;;;;;;;39.70;23.08;;;;;;;;;;5000084;28;20930;-74
2021/12/23 06:33:52;;;;;;;46.75;24.45;;;;;;;;;;4999001;28;20050;-70
2021/12/23 06:36:18;;;;;;;43.13;22.77;;;;;;;;;;4999227;28;20699;-69
2021/12/23 06:38:45;;;;;;;47.15;24.38;;;;;;;;;;5001606;28;20053;-69
2021/12/23 06:41:12;;;;;;;46.58;23.52;;;;;;;;;;4983445;28;20068;-71
2021/12/23 06:43:38;;;;;;;49.47;23.50;;;;;;;;;;4984002;28;20054;-71
2021/12/23 06:46:05;;;;;;;42.38;23.15;;;;;;;;;;5003828;28;20049;-71
2021/12/23 06:48:32;;;;;;;47.70;24.33;;;;;;;;;;5003525;28;20058;-73
2021/12/23 06:51:00;;;;;;;47.95;23.42;;;;;;;;;;4968901;28;20057;-71
2021/12/23 06:53:27;;;;;;;43.30;24.15;;;;;;;;;;4998107;28;20048;-74
2021/12/23 06:55:55;;;;;;;45.58;24.75;;;;;;;;;;5002248;28;20054;-74
2021/12/23 06:58:23;;;;;;;47.67;24.77;;;;;;;;;;5006082;28;20096;-73
2021/12/23 07:00:53;;;;;;;45.58;25.40;;;;;;;;;;5005904;28;20135;-74
2021/12/23 07:03:20;;;;;;;51.55;25.70;;;;;;;;;;5000896;28;20446;-71
2021/12/23 07:05:52;;;;;;;48.70;24.65;;;;;;;;;;4987114;28;20067;-73
2021/12/23 07:08:28;;;;;;;50.92;25.88;;;;;;;;;;5004703;28;20692;-73
2021/12/23 07:10:54;;;;;;;49.25;25.83;;;;;;;;;;5002492;28;20686;-74
2021/12/23 07:13:20;;;;;;;56.55;26.83;;;;;;;;;;5002187;28;20440;-71
2021/12/23 07:15:47;;;;;;;45.63;25.65;;;;;;;;;;4970664;28;20119;-73
2021/12/23 07:18:13;;;;;;;42.83;24.65;;;;;;;;;;4987398;28;20061;-70
2021/12/23 07:20:40;;;;;;;46.85;24.67;;;;;;;;;;4969629;28;20053;-74
2021/12/23 07:23:06;;;;;;;41.70;23.02;;;;;;;;;;5002050;28;20383;-78
2021/12/23 07:25:32;;;;;;;47.92;23.13;;;;;;;;;;5005030;28;20813;-70
2021/12/23 07:27:58;;;;;;;48.55;23.83;;;;;;;;;;4983986;28;20485;-74
2021/12/23 07:30:24;;;;;;;43.28;22.92;;;;;;;;;;4986887;28;20114;-69
2021/12/23 07:32:52;;;;;;;44.45;22.75;;;;;;;;;;4980413;28;20132;-74
2021/12/23 07:35:19;;;;;;;42.38;22.30;;;;;;;;;;5005805;28;20052;-73
2021/12/23 07:37:45;;;;;;;43.20;21.58;;;;;;;;;;4984669;28;20562;-73
2021/12/23 07:40:14;;;;;;;40.03;22.35;;;;;;;;;;4987018;28;20049;-72
2021/12/23 07:42:52;;;;;;;38.10;21.27;;;;;;;;;;5004916;28;20041;-71
2021/12/23 07:45:18;;;;;;;44.33;22.55;;;;;;;;;;4992885;28;20169;-68
2021/12/23 07:47:44;;;;;;;42.50;22.13;;;;;;;;;;4993579;28;20138;-73
2021/12/23 07:50:11;;;;;;;43.72;21.85;;;;;;;;;;5012587;28;20072;-69
2021/12/23 07:52:37;;;;;;;41.00;21.60;;;;;;;;;;5008289;28;20514;-74
2021/12/23 07:55:04;;;;;;;45.92;22.67;;;;;;;;;;5009420;28;20053;-71
2021/12/23 07:57:31;;;;;;;47.00;23.83;;;;;;;;;;5009916;28;20556;-75
2021/12/23 07:59:59;;;;;;;47.40;23.70;;;;;;;;;;5006716;28;20065;-76
2021/12/23 08:02:26;;;;;;;53.53;26.10;;;;;;;;;;5002193;28;20057;-75
2021/12/23 08:04:52;;;;;;;51.70;25.50;;;;;;;;;;4988855;28;20060;-66
2021/12/23 08:07:19;;;;;;;46.80;26.38;;;;;;;;;;5006176;28;20084;-69
2021/12/23 08:09:45;;;;;;;51.28;27.65;;;;;;;;;;5004435;28;20049;-70
2021/12/23 08:12:11;;;;;;;55.65;27.48;;;;;;;;;;5005066;28;20071;-67
2021/12/23 08:14:38;;;;;;;57.97;28.42;;;;;;;;;;4973431;28;20050;-68
2021/12/23 08:17:04;;;;;;;51.13;28.15;;;;;;;;;;4989696;28;20049;-68
2021/12/23 08:19:30;;;;;;;55.72;27.05;;;;;;;;;;5007186;28;20071;-69
2021/12/23 08:21:56;;;;;;;46.47;26.27;;;;;;;;;;4999129;28;21475;-70
2021/12/23 08:24:23;;;;;;;50.92;26.10;;;;;;;;;;5004118;28;20054;-71
2021/12/23 08:26:53;;;;;;;49.78;25.95;;;;;;;;;;5006079;28;20096;-67
2021/12/23 08:29:21;;;;;;;48.85;24.98;;;;;;;;;;5007785;28;20059;-71
2021/12/23 08:31:53;;;;;;;55.53;26.98;;;;;;;;;;4968703;28;20140;-67
2021/12/23 08:34:24;;;;;;;56.50;26.05;;;;;;;;;;4989174;28;20065;-67
2021/12/23 08:36:52;;;;;;;58.22;25.02;;;;;;;;;;4990438;28;20457;-69
2021/12/23 08:39:19;;;;;;;56.40;26.35;;;;;;;;;;4990436;28;20321;-70
2021/12/23 08:41:46;;;;;;;49.00;24.95;;;;;;;;;;4999972;28;20046;-70
2021/12/23 08:44:12;;;;;;;47.30;24.95;;;;;;;;;;4989082;28;20065;-72
2021/12/23 08:46:39;;;;;;;47.72;26.38;;;;;;;;;;5005450;28;20733;-69
2021/12/23 08:49:06;;;;;;;47.58;27.17;;;;;;;;;;5006754;28;20561;-70
2021/12/23 08:51:35;;;;;;;49.85;24.23;;;;;;;;;;5003638;28;20529;-67
2021/12/23 08:54:01;;;;;;;51.38;24.08;;;;;;;;;;4993143;28;20502;-68
2021/12/23 08:56:27;;;;;;;52.65;24.08;;;;;;;;;;4993118;28;20057;-70
2021/12/23 08:58:53;;;;;;;51.85;25.67;;;;;;;;;;4973724;28;20067;-69
2021/12/23 09:01:20;;;;;;;51.92;24.67;;;;;;;;;;4996361;28;20057;-71
2021/12/23 09:03:46;;;;;;;47.40;24.40;;;;;;;;;;4979748;28;20045;-70
2021/12/23 09:06:12;;;;;;;51.10;24.02;;;;;;;;;;5002077;28;20056;-71
2021/12/23 09:08:38;;;;;;;51.78;25.00;;;;;;;;;;5003222;28;20045;-72
2021/12/23 09:11:05;;;;;;;48.70;23.42;;;;;;;;;;5003563;28;20501;-73
2021/12/23 09:13:31;;;;;;;47.50;23.13;;;;;;;;;;4983441;28;20050;-72
2021/12/23 09:15:58;;;;;;;39.60;22.58;;;;;;;;;;4987915;28;20045;-73
2021/12/23 09:18:25;;;;;;;47.83;24.55;;;;;;;;;;4985316;28;20053;-70
2021/12/23 09:20:53;;;;;;;48.22;24.23;;;;;;;;;;5000246;28;20140;-68
2021/12/23 09:23:19;;;;;;;44.05;22.08;;;;;;;;;;5000859;28;20148;-72
2021/12/23 09:25:48;;;;;;;45.88;22.65;;;;;;;;;;5005273;28;20057;-68
2021/12/23 09:33:26;;;;;;;39.58;20.23;;;;;;;;;;4984584;28;20517;-66
2021/12/23 09:35:54;;;;;;;38.45;20.65;;;;;;;;;;5006198;28;20235;-69
2021/12/23 09:38:27;;;;;;;45.50;21.67;;;;;;;;;;5004811;28;20716;-70
2021/12/23 09:41:16;;;;;;;37.47;20.73;;;;;;;;;;4987422;28;21595;-70
2021/12/23 09:43:42;;;;;;;40.95;19.90;;;;;;;;;;5003167;28;20446;-70
2021/12/23 09:46:12;;;;;;;39.40;21.63;;;;;;;;;;5003251;28;20065;-73
2021/12/23 09:48:42;;;;;;;47.10;22.08;;;;;;;;;;4986162;28;20053;-73
2021/12/23 09:51:09;;;;;;;40.13;21.00;;;;;;;;;;5004967;28;20096;-69
2021/12/23 09:53:41;;;;;;;42.40;23.50;;;;;;;;;;5004187;28;20492;-71
2021/12/23 09:56:08;;;;;;;44.03;23.23;;;;;;;;;;5005466;28;20056;-71
2021/12/23 09:58:35;;;;;;;60.97;21.73;;;;;;;;;;4987850;28;20057;-71
2021/12/23 10:01:02;;;;;;;40.47;21.85;;;;;;;;;;5006342;28;20045;-72
2021/12/23 10:03:29;;;;;;;38.67;21.85;;;;;;;;;;4969648;28;20335;-72
2021/12/23 10:05:58;;;;;;;37.28;22.02;;;;;;;;;;4989949;28;20049;-70
2021/12/23 10:08:27;;;;;;;44.90;22.80;;;;;;;;;;5007698;28;20062;-69
2021/12/23 10:38:38;;;;;;;39.63;21.38;;;;;;;;;;4950291;28;20055;-68
2021/12/23 10:41:14;;;;;;;37.65;22.30;;;;;;;;;;4948058;28;20043;-74
2021/12/23 10:43:44;;;;;;;41.88;22.75;;;;;;;;;;4911911;28;20082;-70
2021/12/23 10:46:25;;;;;;;38.58;22.58;;;;;;;;;;4930597;28;20133;-72
2021/12/23 10:49:30;;;;;;;40.55;22.90;;;;;;;;;;4961368;28;20327;-72
2021/12/23 10:52:07;;;;;;;37.50;21.67;;;;;;;;;;5004683;28;20065;-70
2021/12/23 11:00:31;;;;;;;36.00;22.08;;;;;;;;;;5004253;28;20699;-70
2021/12/23 11:03:04;;;;;;;42.95;22.40;;;;;;;;;;5002127;28;20499;-68
2021/12/23 11:05:35;;;;;;;35.72;21.88;;;;;;;;;;5007677;28;20629;-71
2021/12/23 11:08:20;;;;;;;41.25;22.85;;;;;;;;;;4990213;28;20155;-70
2021/12/23 11:38:31;;;;;;;29.08;18.42;;;;;;;;;;4952759;28;20284;-68
2021/12/23 11:41:17;;;;;;;31.85;18.23;;;;;;;;;;4952808;28;20066;-69
2021/12/23 11:46:11;;;;;;;29.17;16.35;;;;;;;;;;4966431;28;20625;-72
2021/12/23 11:48:42;;;;;;;22.67;15.88;;;;;;;;;;4966088;28;20389;-71
2021/12/23 11:51:15;;;;;;;21.70;12.05;;;;;;;;;;4951218;28;20121;-73
2021/12/23 11:53:47;;;;;;;18.67;11.52;;;;;;;;;;4982358;28;20050;-68
2021/12/23 11:56:14;;;;;;;19.38;9.55;;;;;;;;;;5004959;28;20101;-70
2021/12/23 11:58:43;;;;;;;11.15;7.25;;;;;;;;;;4973944;28;20061;-69
2021/12/23 12:01:22;;;;;;;12.85;6.40;;;;;;;;;;5008036;28;20539;-72
2021/12/23 12:03:59;;;;;;;8.30;5.25;;;;;;;;;;5008634;28;20081;-63
2021/12/23 12:06:42;;;;;;;8.60;4.50;;;;;;;;;;4989910;28;20087;-66
2021/12/23 12:09:22;;;;;;;8.35;3.97;;;;;;;;;;4994909;28;20053;-70
2021/12/23 12:12:08;;;;;;;6.07;3.65;;;;;;;;;;5001995;28;20045;-67
2021/12/23 12:14:40;;;;;;;6.10;3.22;;;;;;;;;;4992180;28;20080;-73
2021/12/23 12:17:25;;;;;;;6.28;3.15;;;;;;;;;;5007581;28;20121;-71
2021/12/23 12:20:00;;;;;;;9.00;3.10;;;;;;;;;;4988606;28;20061;-66
2021/12/23 12:22:45;;;;;;;5.90;3.28;;;;;;;;;;4986220;28;20064;-71
2021/12/23 12:25:41;;;;;;;6.28;3.05;;;;;;;;;;5007627;28;20063;-68
2021/12/23 12:28:07;;;;;;;8.30;3.75;;;;;;;;;;4992353;28;20053;-72
2021/12/23 12:31:05;;;;;;;6.38;3.63;;;;;;;;;;5010724;28;20041;-68
2021/12/23 12:33:34;;;;;;;10.40;4.90;;;;;;;;;;4972611;28;20053;-71
2021/12/23 12:36:00;;;;;;;5.97;4.50;;;;;;;;;;4974401;28;20521;-72
2021/12/23 12:38:29;;;;;;;8.70;4.30;;;;;;;;;;4991027;28;20057;-71
2021/12/23 12:41:39;;;;;;;6.70;4.97;;;;;;;;;;4988929;28;20053;-69
2021/12/23 12:44:13;;;;;;;8.45;4.70;;;;;;;;;;4983390;28;20042;-70
2021/12/23 12:46:43;;;;;;;8.50;4.57;;;;;;;;;;5009346;28;20053;-71
2021/12/23 12:49:27;;;;;;;7.60;4.97;;;;;;;;;;5010213;28;20171;-75
2021/12/23 12:52:06;;;;;;;10.73;5.43;;;;;;;;;;4987673;28;20541;-70
2021/12/23 12:54:33;;;;;;;10.40;5.00;;;;;;;;;;5010755;28;20522;-72
2021/12/23 12:57:06;;;;;;;8.25;4.90;;;;;;;;;;5009852;28;20298;-75
2021/12/23 12:59:38;;;;;;;8.98;5.25;;;;;;;;;;4991846;28;20049;-70
2021/12/23 13:02:19;;;;;;;9.95;4.55;;;;;;;;;;4987101;28;20053;-72
2021/12/23 13:04:57;;;;;;;9.60;5.18;;;;;;;;;;4993208;28;20045;-69
2021/12/23 13:07:35;;;;;;;8.35;4.90;;;;;;;;;;5010221;28;20549;-72
2021/12/23 13:10:08;;;;;;;10.05;5.18;;;;;;;;;;5006703;28;20049;-71
2021/12/23 13:12:56;;;;;;;8.70;4.65;;;;;;;;;;4987410;28;20068;-70
2021/12/23 13:15:24;;;;;;;8.55;5.05;;;;;;;;;;4975697;28;20466;-74
2021/12/23 13:18:06;;;;;;;10.52;5.38;;;;;;;;;;4991360;28;20141;-70
2021/12/23 13:20:43;;;;;;;9.88;5.05;;;;;;;;;;5008243;28;20202;-70
2021/12/23 13:23:31;;;;;;;10.40;5.25;;;;;;;;;;4988718;28;20061;-72
2021/12/23 13:25:58;;;;;;;12.98;5.15;;;;;;;;;;4990634;28;20089;-73
2021/12/23 13:28:40;;;;;;;10.30;5.43;;;;;;;;;;5006430;28;20503;-71
2021/12/23 13:31:40;;;;;;;7.57;5.32;;;;;;;;;;4989006;28;20049;-71
2021/12/23 13:34:33;;;;;;;9.23;5.38;;;;;;;;;;5010839;28;20057;-72
2021/12/23 13:37:06;;;;;;;10.77;5.25;;;;;;;;;;5009196;28;20061;-70
2021/12/23 13:39:37;;;;;;;13.95;6.10;;;;;;;;;;5007189;28;20064;-73
2021/12/23 13:42:06;;;;;;;10.23;5.40;;;;;;;;;;5000748;28;20033;-72
2021/12/23 13:44:35;;;;;;;8.82;5.45;;;;;;;;;;5008220;28;20136;-71
2021/12/23 13:47:06;;;;;;;10.02;6.00;;;;;;;;;;5006046;28;20044;-69
2021/12/23 13:49:37;;;;;;;14.00;6.20;;;;;;;;;;4990635;28;20878;-71
2021/12/23 13:52:26;;;;;;;10.27;5.68;;;;;;;;;;4986357;28;20127;-73
2021/12/23 13:54:55;;;;;;;9.10;5.65;;;;;;;;;;5005742;28;20045;-67
2021/12/23 13:57:23;;;;;;;8.15;5.57;;;;;;;;;;4986047;28;20497;-67
2021/12/23 13:59:52;;;;;;;10.18;5.72;;;;;;;;;;5008149;28;20477;-72
2021/12/23 14:02:28;;;;;;;9.80;5.70;;;;;;;;;;4984808;28;20073;-68
2021/12/23 14:05:03;;;;;;;10.60;5.18;;;;;;;;;;4990429;28;20498;-69
2021/12/23 14:07:31;;;;;;;9.18;5.20;;;;;;;;;;4993362;28;20190;-74
2021/12/23 14:10:09;;;;;;;10.73;4.93;;;;;;;;;;5009224;28;20077;-72
2021/12/23 14:13:09;;;;;;;7.13;4.43;;;;;;;;;;5007998;28;20577;-71
2021/12/23 14:15:46;;;;;;;15.07;5.28;;;;;;;;;;5004260;28;20466;-72
2021/12/23 14:23:39;;;;;;;11.38;6.32;;;;;;;;;;5006315;28;20061;-70
2021/12/23 14:26:23;;;;;;;10.15;5.63;;;;;;;;;;5010107;28;20080;-73
2021/12/23 14:28:54;;;;;;;10.15;5.55;;;;;;;;;;5013722;28;20049;-69
2021/12/23 14:31:22;;;;;;;8.75;5.40;;;;;;;;;;4993106;28;20172;-73
2021/12/23 14:33:52;;;;;;;9.77;5.35;;;;;;;;;;4979088;28;20132;-70
2021/12/23 14:36:34;;;;;;;13.43;5.05;;;;;;;;;;5009848;28;20101;-70
2021/12/23 14:39:06;;;;;;;8.77;5.28;;;;;;;;;;5011435;28;20140;-71
2021/12/23 14:41:40;;;;;;;15.05;7.28;;;;;;;;;;4987827;28;20057;-71
2021/12/23 14:44:25;;;;;;;14.40;5.28;;;;;;;;;;5010927;28;20061;-70
2021/12/23 14:52:36;;;;;;;12.95;5.38;;;;;;;;;;4930833;28;20050;-73
2021/12/23 14:55:12;;;;;;;8.95;4.82;;;;;;;;;;4933245;28;20097;-71
2021/12/23 14:57:51;;;;;;;9.63;4.72;;;;;;;;;;4950275;28;20050;-71
2021/12/23 15:00:29;;;;;;;8.82;4.28;;;;;;;;;;4947945;28;20157;-71
2021/12/23 15:03:16;;;;;;;11.38;4.88;;;;;;;;;;4942348;28;20420;-72
2021/12/23 15:05:47;;;;;;;15.50;5.43;;;;;;;;;;4949628;28;20143;-72
2021/12/23 15:08:17;;;;;;;7.88;4.72;;;;;;;;;;4951619;28;20054;-70
2021/12/23 15:10:53;;;;;;;7.43;4.40;;;;;;;;;;4947707;28;20190;-73
2021/12/23 15:13:19;;;;;;;7.63;4.40;;;;;;;;;;4929440;28;20047;-71
2021/12/23 15:15:47;;;;;;;8.55;4.97;;;;;;;;;;4932953;28;20081;-70
2021/12/23 15:19:21;;;;;;;6.18;4.20;;;;;;;;;;4923956;28;20355;-72
2021/12/23 15:21:41;;;;;;;7.43;4.40;;;;;;;;;;4936974;28;20468;-75
2021/12/23 15:24:22;;;;;;;6.95;4.28;;;;;;;;;;4965214;28;20049;-71
2021/12/23 15:26:56;;;;;;;9.57;5.03;;;;;;;;;;4990640;28;20064;-69
2021/12/23 15:29:36;;;;;;;9.35;5.03;;;;;;;;;;4992512;28;21324;-68
2021/12/23 15:32:10;;;;;;;11.55;4.97;;;;;;;;;;5004911;28;20056;-71
2021/12/23 15:34:45;;;;;;;11.43;5.32;;;;;;;;;;5006196;28;20411;-72
2021/12/23 15:37:12;;;;;;;14.40;5.88;;;;;;;;;;5007549;28;20450;-69
2021/12/23 15:39:39;;;;;;;8.48;5.30;;;;;;;;;;4990265;28;20053;-76
2021/12/23 15:42:08;;;;;;;11.38;5.53;;;;;;;;;;4987609;28;20061;-74
2021/12/23 15:44:36;;;;;;;10.57;5.82;;;;;;;;;;5010861;28;20710;-74
2021/12/23 15:47:06;;;;;;;14.45;6.40;;;;;;;;;;5007322;28;20091;-73
2021/12/23 15:49:33;;;;;;;9.85;6.00;;;;;;;;;;5008157;28;20538;-72
2021/12/23 15:52:01;;;;;;;15.52;7.75;;;;;;;;;;5004226;28;20140;-71
2021/12/23 15:54:30;;;;;;;11.45;7.55;;;;;;;;;;5008388;28;20060;-74
2021/12/23 15:56:58;;;;;;;16.75;10.10;;;;;;;;;;5009251;28;20061;-74
2021/12/23 15:59:26;;;;;;;18.88;10.88;;;;;;;;;;4991759;28;20081;-67
2021/12/23 16:01:53;;;;;;;20.00;11.98;;;;;;;;;;5002887;28;20080;-69
2021/12/23 16:04:29;;;;;;;22.10;12.30;;;;;;;;;;4975015;28;20095;-70
2021/12/23 16:09:43;;;;;;;22.58;13.20;;;;;;;;;;4990144;28;20057;-72